sensor_id;sensor_type;location;lat;lon;timestamp;P1;durP1;ratioP1;P2;durP2;ratioP2
59310;SDS011;45078;51.654;21.250;2023-07-13T00:01:43;10.02;;;5.10;;
59310;SDS011;45078;51.654;21.250;2023-07-13T00:04:09;9.07;;;4.78;;
59310;SDS011;45078;51.654;21.250;2023-07-13T00:06:34;7.80;;;5.15;;
59310;SDS011;45078;51.654;21.250;2023-07-13T00:09:00;9.57;;;5.88;;
59310;SDS011;45078;51.654;21.250;2023-07-13T00:11:26;7.32;;;5.40;;
59310;SDS011;45078;51.654;21.250;2023-07-13T00:13:52;11.07;;;4.95;;
59310;SDS011;45078;51.654;21.250;2023-07-13T00:16:18;7.38;;;4.97;;
59310;SDS011;45078;51.654;21.250;2023-07-13T00:18:45;7.82;;;4.55;;
59310;SDS011;45078;51.654;21.250;2023-07-13T00:21:11;6.65;;;4.30;;
59310;SDS011;45078;51.654;21.250;2023-07-13T00:23:38;6.65;;;4.25;;
59310;SDS011;45078;51.654;21.250;2023-07-13T00:26:06;8.40;;;5.25;;
59310;SDS011;45078;51.654;21.250;2023-07-13T00:28:33;7.93;;;5.18;;
59310;SDS011;45078;51.654;21.250;2023-07-13T00:31:00;11.45;;;5.32;;
59310;SDS011;45078;51.654;21.250;2023-07-13T00:33:27;9.48;;;5.30;;
59310;SDS011;45078;51.654;21.250;2023-07-13T00:35:54;9.43;;;4.82;;
59310;SDS011;45078;51.654;21.250;2023-07-13T00:38:20;14.18;;;5.38;;
59310;SDS011;45078;51.654;21.250;2023-07-13T00:40:46;10.55;;;6.15;;
59310;SDS011;45078;51.654;21.250;2023-07-13T00:43:13;7.63;;;5.40;;
59310;SDS011;45078;51.654;21.250;2023-07-13T00:48:14;9.52;;;5.68;;
59310;SDS011;45078;51.654;21.250;2023-07-13T00:50:43;9.00;;;5.72;;
59310;SDS011;45078;51.654;21.250;2023-07-13T00:53:11;9.20;;;5.00;;
59310;SDS011;45078;51.654;21.250;2023-07-13T00:55:38;6.82;;;4.50;;
59310;SDS011;45078;51.654;21.250;2023-07-13T00:58:04;6.75;;;4.68;;
59310;SDS011;45078;51.654;21.250;2023-07-13T01:00:31;9.63;;;5.38;;
59310;SDS011;45078;51.654;21.250;2023-07-13T01:02:59;6.55;;;5.22;;
59310;SDS011;45078;51.654;21.250;2023-07-13T01:05:32;10.48;;;5.75;;
59310;SDS011;45078;51.654;21.250;2023-07-13T01:08:00;7.40;;;5.20;;
59310;SDS011;45078;51.654;21.250;2023-07-13T01:10:27;6.00;;;4.75;;
59310;SDS011;45078;51.654;21.250;2023-07-13T01:12:53;13.02;;;5.63;;
59310;SDS011;45078;51.654;21.250;2023-07-13T01:18:11;10.77;;;5.18;;
59310;SDS011;45078;51.654;21.250;2023-07-13T01:20:50;9.43;;;5.60;;
59310;SDS011;45078;51.654;21.250;2023-07-13T01:23:26;9.25;;;5.07;;
59310;SDS011;45078;51.654;21.250;2023-07-13T01:25:53;8.68;;;5.47;;
59310;SDS011;45078;51.654;21.250;2023-07-13T01:28:20;7.47;;;4.97;;
59310;SDS011;45078;51.654;21.250;2023-07-13T01:30:47;9.40;;;4.95;;
59310;SDS011;45078;51.654;21.250;2023-07-13T01:33:14;8.18;;;5.80;;
59310;SDS011;45078;51.654;21.250;2023-07-13T01:35:42;8.27;;;4.75;;
59310;SDS011;45078;51.654;21.250;2023-07-13T01:38:09;6.25;;;5.32;;
59310;SDS011;45078;51.654;21.250;2023-07-13T01:40:35;10.73;;;5.18;;
59310;SDS011;45078;51.654;21.250;2023-07-13T01:43:02;9.38;;;4.80;;
59310;SDS011;45078;51.654;21.250;2023-07-13T01:45:28;8.63;;;5.30;;
59310;SDS011;45078;51.654;21.250;2023-07-13T01:47:54;7.47;;;5.55;;
59310;SDS011;45078;51.654;21.250;2023-07-13T01:50:19;11.20;;;6.82;;
59310;SDS011;45078;51.654;21.250;2023-07-13T01:52:45;14.15;;;7.47;;
59310;SDS011;45078;51.654;21.250;2023-07-13T01:55:11;6.78;;;5.03;;
59310;SDS011;45078;51.654;21.250;2023-07-13T01:57:37;10.82;;;5.30;;
59310;SDS011;45078;51.654;21.250;2023-07-13T02:00:04;11.02;;;5.80;;
59310;SDS011;45078;51.654;21.250;2023-07-13T02:02:31;8.52;;;5.97;;
59310;SDS011;45078;51.654;21.250;2023-07-13T02:04:57;7.82;;;6.10;;
59310;SDS011;45078;51.654;21.250;2023-07-13T02:07:23;8.57;;;5.90;;
59310;SDS011;45078;51.654;21.250;2023-07-13T02:09:49;10.23;;;6.07;;
59310;SDS011;45078;51.654;21.250;2023-07-13T02:12:14;9.65;;;5.57;;
59310;SDS011;45078;51.654;21.250;2023-07-13T02:14:40;10.38;;;5.70;;
59310;SDS011;45078;51.654;21.250;2023-07-13T02:17:06;15.00;;;5.78;;
59310;SDS011;45078;51.654;21.250;2023-07-13T02:19:32;15.60;;;6.70;;
59310;SDS011;45078;51.654;21.250;2023-07-13T02:21:58;8.60;;;5.30;;
59310;SDS011;45078;51.654;21.250;2023-07-13T02:24:23;10.02;;;6.32;;
59310;SDS011;45078;51.654;21.250;2023-07-13T02:26:49;6.68;;;5.38;;
59310;SDS011;45078;51.654;21.250;2023-07-13T02:29:15;11.10;;;5.50;;
59310;SDS011;45078;51.654;21.250;2023-07-13T02:31:41;8.10;;;5.90;;
59310;SDS011;45078;51.654;21.250;2023-07-13T02:34:06;8.30;;;5.53;;
59310;SDS011;45078;51.654;21.250;2023-07-13T02:36:32;13.32;;;5.50;;
59310;SDS011;45078;51.654;21.250;2023-07-13T02:39:01;7.13;;;5.32;;
59310;SDS011;45078;51.654;21.250;2023-07-13T02:41:28;8.50;;;6.85;;
59310;SDS011;45078;51.654;21.250;2023-07-13T02:43:54;9.70;;;5.13;;
59310;SDS011;45078;51.654;21.250;2023-07-13T02:46:28;10.07;;;6.60;;
59310;SDS011;45078;51.654;21.250;2023-07-13T02:48:56;9.00;;;6.00;;
59310;SDS011;45078;51.654;21.250;2023-07-13T02:51:22;8.00;;;6.55;;
59310;SDS011;45078;51.654;21.250;2023-07-13T02:53:48;7.68;;;5.63;;
59310;SDS011;45078;51.654;21.250;2023-07-13T02:56:14;10.85;;;5.88;;
59310;SDS011;45078;51.654;21.250;2023-07-13T02:58:39;9.38;;;7.22;;
59310;SDS011;45078;51.654;21.250;2023-07-13T03:01:06;8.57;;;6.15;;
59310;SDS011;45078;51.654;21.250;2023-07-13T03:03:34;11.40;;;6.38;;
59310;SDS011;45078;51.654;21.250;2023-07-13T03:06:00;10.05;;;6.60;;
59310;SDS011;45078;51.654;21.250;2023-07-13T03:08:28;10.88;;;6.53;;
59310;SDS011;45078;51.654;21.250;2023-07-13T03:11:00;11.60;;;6.10;;
59310;SDS011;45078;51.654;21.250;2023-07-13T03:15:53;15.50;;;7.22;;
59310;SDS011;45078;51.654;21.250;2023-07-13T03:18:18;13.13;;;6.65;;
59310;SDS011;45078;51.654;21.250;2023-07-13T03:20:44;12.55;;;6.80;;
59310;SDS011;45078;51.654;21.250;2023-07-13T03:23:10;14.25;;;6.50;;
59310;SDS011;45078;51.654;21.250;2023-07-13T03:25:36;11.02;;;6.57;;
59310;SDS011;45078;51.654;21.250;2023-07-13T03:28:01;14.68;;;6.43;;
59310;SDS011;45078;51.654;21.250;2023-07-13T03:30:27;10.75;;;7.03;;
59310;SDS011;45078;51.654;21.250;2023-07-13T03:32:53;8.77;;;6.63;;
59310;SDS011;45078;51.654;21.250;2023-07-13T03:35:18;11.95;;;7.07;;
59310;SDS011;45078;51.654;21.250;2023-07-13T03:37:44;15.02;;;7.20;;
59310;SDS011;45078;51.654;21.250;2023-07-13T03:40:10;14.18;;;7.70;;
59310;SDS011;45078;51.654;21.250;2023-07-13T03:42:37;10.75;;;7.80;;
59310;SDS011;45078;51.654;21.250;2023-07-13T03:45:03;10.70;;;7.10;;
59310;SDS011;45078;51.654;21.250;2023-07-13T03:47:29;8.02;;;6.07;;
59310;SDS011;45078;51.654;21.250;2023-07-13T03:49:54;10.05;;;6.35;;
59310;SDS011;45078;51.654;21.250;2023-07-13T03:52:20;11.18;;;7.13;;
59310;SDS011;45078;51.654;21.250;2023-07-13T03:54:46;13.20;;;8.02;;
59310;SDS011;45078;51.654;21.250;2023-07-13T03:57:12;12.98;;;8.10;;
59310;SDS011;45078;51.654;21.250;2023-07-13T03:59:37;14.80;;;8.05;;
59310;SDS011;45078;51.654;21.250;2023-07-13T04:02:03;12.55;;;8.10;;
59310;SDS011;45078;51.654;21.250;2023-07-13T04:04:30;16.50;;;8.00;;
59310;SDS011;45078;51.654;21.250;2023-07-13T04:06:57;12.20;;;7.47;;
59310;SDS011;45078;51.654;21.250;2023-07-13T04:09:24;19.23;;;8.13;;
59310;SDS011;45078;51.654;21.250;2023-07-13T04:11:50;13.30;;;7.60;;
59310;SDS011;45078;51.654;21.250;2023-07-13T04:14:16;12.10;;;7.25;;
59310;SDS011;45078;51.654;21.250;2023-07-13T04:16:42;15.63;;;9.00;;
59310;SDS011;45078;51.654;21.250;2023-07-13T04:19:08;18.67;;;9.65;;
59310;SDS011;45078;51.654;21.250;2023-07-13T04:21:35;11.95;;;8.65;;
59310;SDS011;45078;51.654;21.250;2023-07-13T04:24:02;14.55;;;9.10;;
59310;SDS011;45078;51.654;21.250;2023-07-13T04:26:29;11.45;;;8.45;;
59310;SDS011;45078;51.654;21.250;2023-07-13T04:28:55;15.52;;;8.82;;
59310;SDS011;45078;51.654;21.250;2023-07-13T04:31:21;12.52;;;8.10;;
59310;SDS011;45078;51.654;21.250;2023-07-13T04:33:47;13.93;;;7.95;;
59310;SDS011;45078;51.654;21.250;2023-07-13T04:36:14;13.52;;;8.73;;
59310;SDS011;45078;51.654;21.250;2023-07-13T04:38:40;12.98;;;9.23;;
59310;SDS011;45078;51.654;21.250;2023-07-13T04:41:07;12.80;;;7.50;;
59310;SDS011;45078;51.654;21.250;2023-07-13T04:43:34;12.68;;;8.77;;
59310;SDS011;45078;51.654;21.250;2023-07-13T04:46:06;11.75;;;8.07;;
59310;SDS011;45078;51.654;21.250;2023-07-13T04:48:35;19.80;;;8.95;;
59310;SDS011;45078;51.654;21.250;2023-07-13T04:51:01;12.48;;;8.23;;
59310;SDS011;45078;51.654;21.250;2023-07-13T04:53:27;17.25;;;9.13;;
59310;SDS011;45078;51.654;21.250;2023-07-13T04:55:53;11.95;;;8.82;;
59310;SDS011;45078;51.654;21.250;2023-07-13T04:58:20;14.52;;;8.82;;
59310;SDS011;45078;51.654;21.250;2023-07-13T05:00:46;14.73;;;9.82;;
59310;SDS011;45078;51.654;21.250;2023-07-13T05:03:12;16.42;;;9.13;;
59310;SDS011;45078;51.654;21.250;2023-07-13T05:05:38;13.23;;;9.88;;
59310;SDS011;45078;51.654;21.250;2023-07-13T05:08:04;12.88;;;9.02;;
59310;SDS011;45078;51.654;21.250;2023-07-13T05:10:29;13.65;;;9.02;;
59310;SDS011;45078;51.654;21.250;2023-07-13T05:12:55;14.93;;;8.88;;
59310;SDS011;45078;51.654;21.250;2023-07-13T05:15:21;13.20;;;9.27;;
59310;SDS011;45078;51.654;21.250;2023-07-13T05:17:48;12.27;;;9.23;;
59310;SDS011;45078;51.654;21.250;2023-07-13T05:20:15;16.80;;;9.93;;
59310;SDS011;45078;51.654;21.250;2023-07-13T05:22:42;17.05;;;9.48;;
59310;SDS011;45078;51.654;21.250;2023-07-13T05:25:08;15.18;;;9.23;;
59310;SDS011;45078;51.654;21.250;2023-07-13T05:27:34;12.95;;;9.70;;
59310;SDS011;45078;51.654;21.250;2023-07-13T05:30:01;14.95;;;9.85;;
59310;SDS011;45078;51.654;21.250;2023-07-13T05:32:28;16.65;;;10.55;;
59310;SDS011;45078;51.654;21.250;2023-07-13T05:34:54;16.58;;;10.35;;
59310;SDS011;45078;51.654;21.250;2023-07-13T05:37:20;17.80;;;10.32;;
59310;SDS011;45078;51.654;21.250;2023-07-13T05:39:45;16.00;;;10.60;;
59310;SDS011;45078;51.654;21.250;2023-07-13T05:42:11;14.52;;;9.93;;
59310;SDS011;45078;51.654;21.250;2023-07-13T05:44:37;16.15;;;10.00;;
59310;SDS011;45078;51.654;21.250;2023-07-13T05:47:03;16.08;;;10.32;;
59310;SDS011;45078;51.654;21.250;2023-07-13T05:49:29;15.27;;;9.90;;
59310;SDS011;45078;51.654;21.250;2023-07-13T05:51:55;16.58;;;10.18;;
59310;SDS011;45078;51.654;21.250;2023-07-13T05:54:21;14.73;;;9.45;;
59310;SDS011;45078;51.654;21.250;2023-07-13T05:56:47;12.90;;;9.82;;
59310;SDS011;45078;51.654;21.250;2023-07-13T05:59:13;17.30;;;10.40;;
59310;SDS011;45078;51.654;21.250;2023-07-13T06:01:39;13.05;;;10.10;;
59310;SDS011;45078;51.654;21.250;2023-07-13T06:04:04;14.90;;;10.13;;
59310;SDS011;45078;51.654;21.250;2023-07-13T06:06:30;15.80;;;10.73;;
59310;SDS011;45078;51.654;21.250;2023-07-13T06:08:56;18.40;;;11.02;;
59310;SDS011;45078;51.654;21.250;2023-07-13T06:11:22;14.60;;;11.18;;
59310;SDS011;45078;51.654;21.250;2023-07-13T06:13:50;22.55;;;11.07;;
59310;SDS011;45078;51.654;21.250;2023-07-13T06:16:16;15.25;;;10.65;;
59310;SDS011;45078;51.654;21.250;2023-07-13T06:18:42;18.40;;;11.23;;
59310;SDS011;45078;51.654;21.250;2023-07-13T06:21:09;17.98;;;10.93;;
59310;SDS011;45078;51.654;21.250;2023-07-13T06:23:36;14.63;;;10.68;;
59310;SDS011;45078;51.654;21.250;2023-07-13T06:26:03;18.10;;;10.23;;
59310;SDS011;45078;51.654;21.250;2023-07-13T06:28:30;17.02;;;11.00;;
59310;SDS011;45078;51.654;21.250;2023-07-13T06:30:57;15.75;;;10.68;;
59310;SDS011;45078;51.654;21.250;2023-07-13T06:33:23;16.42;;;11.23;;
59310;SDS011;45078;51.654;21.250;2023-07-13T06:35:49;17.83;;;10.90;;
59310;SDS011;45078;51.654;21.250;2023-07-13T06:38:14;16.48;;;10.70;;
59310;SDS011;45078;51.654;21.250;2023-07-13T06:40:40;14.40;;;11.00;;
59310;SDS011;45078;51.654;21.250;2023-07-13T06:43:06;16.05;;;10.63;;
59310;SDS011;45078;51.654;21.250;2023-07-13T06:45:35;16.02;;;11.13;;
59310;SDS011;45078;51.654;21.250;2023-07-13T06:48:11;17.90;;;10.27;;
59310;SDS011;45078;51.654;21.250;2023-07-13T06:50:36;14.90;;;11.15;;
59310;SDS011;45078;51.654;21.250;2023-07-13T06:53:02;14.68;;;11.13;;
59310;SDS011;45078;51.654;21.250;2023-07-13T06:55:28;14.25;;;10.50;;
59310;SDS011;45078;51.654;21.250;2023-07-13T06:57:54;15.98;;;10.48;;
59310;SDS011;45078;51.654;21.250;2023-07-13T07:00:19;14.13;;;10.13;;
59310;SDS011;45078;51.654;21.250;2023-07-13T07:02:45;14.05;;;10.30;;
59310;SDS011;45078;51.654;21.250;2023-07-13T07:05:11;15.32;;;11.02;;
59310;SDS011;45078;51.654;21.250;2023-07-13T07:07:37;17.60;;;11.20;;
59310;SDS011;45078;51.654;21.250;2023-07-13T07:10:02;17.52;;;10.68;;
59310;SDS011;45078;51.654;21.250;2023-07-13T07:12:28;14.90;;;10.98;;
59310;SDS011;45078;51.654;21.250;2023-07-13T07:14:54;15.45;;;10.88;;
59310;SDS011;45078;51.654;21.250;2023-07-13T07:17:20;18.77;;;12.40;;
59310;SDS011;45078;51.654;21.250;2023-07-13T07:19:46;16.83;;;11.45;;
59310;SDS011;45078;51.654;21.250;2023-07-13T07:22:12;16.58;;;11.13;;
59310;SDS011;45078;51.654;21.250;2023-07-13T07:24:38;15.82;;;11.10;;
59310;SDS011;45078;51.654;21.250;2023-07-13T07:27:06;14.65;;;10.80;;
59310;SDS011;45078;51.654;21.250;2023-07-13T07:29:32;16.02;;;10.73;;
59310;SDS011;45078;51.654;21.250;2023-07-13T07:31:59;15.00;;;10.95;;
59310;SDS011;45078;51.654;21.250;2023-07-13T07:34:26;16.42;;;11.70;;
59310;SDS011;45078;51.654;21.250;2023-07-13T07:36:53;13.77;;;10.68;;
59310;SDS011;45078;51.654;21.250;2023-07-13T07:39:19;14.50;;;10.60;;
59310;SDS011;45078;51.654;21.250;2023-07-13T07:41:45;16.23;;;11.23;;
59310;SDS011;45078;51.654;21.250;2023-07-13T07:44:11;18.35;;;12.73;;
59310;SDS011;45078;51.654;21.250;2023-07-13T07:46:37;18.58;;;11.75;;
59310;SDS011;45078;51.654;21.250;2023-07-13T07:49:05;15.35;;;11.00;;
59310;SDS011;45078;51.654;21.250;2023-07-13T07:51:31;15.82;;;11.57;;
59310;SDS011;45078;51.654;21.250;2023-07-13T07:53:57;16.55;;;11.60;;
59310;SDS011;45078;51.654;21.250;2023-07-13T07:56:22;17.10;;;11.40;;
59310;SDS011;45078;51.654;21.250;2023-07-13T07:58:48;15.77;;;11.93;;
59310;SDS011;45078;51.654;21.250;2023-07-13T08:01:14;17.23;;;12.35;;
59310;SDS011;45078;51.654;21.250;2023-07-13T08:03:41;14.52;;;11.40;;
59310;SDS011;45078;51.654;21.250;2023-07-13T08:06:06;19.48;;;12.70;;
59310;SDS011;45078;51.654;21.250;2023-07-13T08:08:32;16.95;;;11.68;;
59310;SDS011;45078;51.654;21.250;2023-07-13T08:11:02;16.25;;;12.30;;
59310;SDS011;45078;51.654;21.250;2023-07-13T08:13:29;18.60;;;12.25;;
59310;SDS011;45078;51.654;21.250;2023-07-13T08:15:54;19.30;;;13.63;;
59310;SDS011;45078;51.654;21.250;2023-07-13T08:18:20;25.58;;;13.13;;
59310;SDS011;45078;51.654;21.250;2023-07-13T08:20:46;19.25;;;13.52;;
59310;SDS011;45078;51.654;21.250;2023-07-13T08:23:12;19.02;;;12.57;;
59310;SDS011;45078;51.654;21.250;2023-07-13T08:25:37;16.52;;;11.82;;
59310;SDS011;45078;51.654;21.250;2023-07-13T08:28:03;18.77;;;12.90;;
59310;SDS011;45078;51.654;21.250;2023-07-13T08:30:29;22.23;;;13.02;;
59310;SDS011;45078;51.654;21.250;2023-07-13T08:32:55;20.67;;;13.57;;
59310;SDS011;45078;51.654;21.250;2023-07-13T08:35:21;17.13;;;13.38;;
59310;SDS011;45078;51.654;21.250;2023-07-13T08:37:47;15.55;;;12.65;;
59310;SDS011;45078;51.654;21.250;2023-07-13T08:40:12;16.05;;;12.88;;
59310;SDS011;45078;51.654;21.250;2023-07-13T08:42:45;18.98;;;13.30;;
59310;SDS011;45078;51.654;21.250;2023-07-13T08:45:19;16.67;;;13.45;;
59310;SDS011;45078;51.654;21.250;2023-07-13T08:47:52;15.65;;;12.05;;
59310;SDS011;45078;51.654;21.250;2023-07-13T08:50:28;19.52;;;12.52;;
59310;SDS011;45078;51.654;21.250;2023-07-13T08:52:59;15.07;;;12.40;;
59310;SDS011;45078;51.654;21.250;2023-07-13T08:55:29;17.33;;;12.82;;
59310;SDS011;45078;51.654;21.250;2023-07-13T09:00:53;21.27;;;12.93;;
59310;SDS011;45078;51.654;21.250;2023-07-13T09:03:37;16.63;;;11.55;;
59310;SDS011;45078;51.654;21.250;2023-07-13T09:06:11;19.30;;;12.10;;
59310;SDS011;45078;51.654;21.250;2023-07-13T09:17:03;14.93;;;11.70;;
59310;SDS011;45078;51.654;21.250;2023-07-13T09:19:31;14.82;;;12.18;;
59310;SDS011;45078;51.654;21.250;2023-07-13T09:21:59;16.35;;;11.98;;
59310;SDS011;45078;51.654;21.250;2023-07-13T09:26:59;14.05;;;10.70;;
59310;SDS011;45078;51.654;21.250;2023-07-13T09:29:30;17.17;;;11.45;;
59310;SDS011;45078;51.654;21.250;2023-07-13T09:32:01;13.93;;;10.27;;
59310;SDS011;45078;51.654;21.250;2023-07-13T09:34:29;14.43;;;10.10;;
59310;SDS011;45078;51.654;21.250;2023-07-13T09:36:57;14.70;;;10.43;;
59310;SDS011;45078;51.654;21.250;2023-07-13T09:42:07;13.70;;;10.77;;
59310;SDS011;45078;51.654;21.250;2023-07-13T09:47:03;12.95;;;10.55;;
59310;SDS011;45078;51.654;21.250;2023-07-13T09:49:41;11.57;;;8.98;;
59310;SDS011;45078;51.654;21.250;2023-07-13T09:52:12;13.75;;;9.38;;
59310;SDS011;45078;51.654;21.250;2023-07-13T09:54:43;12.43;;;9.15;;
59310;SDS011;45078;51.654;21.250;2023-07-13T09:57:15;11.55;;;8.45;;
59310;SDS011;45078;51.654;21.250;2023-07-13T09:59:44;14.32;;;9.57;;
59310;SDS011;45078;51.654;21.250;2023-07-13T10:05:09;12.73;;;9.40;;
59310;SDS011;45078;51.654;21.250;2023-07-13T10:07:38;15.63;;;9.88;;
59310;SDS011;45078;51.654;21.250;2023-07-13T10:10:16;11.10;;;9.65;;
59310;SDS011;45078;51.654;21.250;2023-07-13T10:12:45;13.07;;;9.18;;
59310;SDS011;45078;51.654;21.250;2023-07-13T10:15:21;10.95;;;8.60;;
59310;SDS011;45078;51.654;21.250;2023-07-13T10:17:52;11.73;;;9.30;;
59310;SDS011;45078;51.654;21.250;2023-07-13T10:20:20;13.32;;;9.68;;
59310;SDS011;45078;51.654;21.250;2023-07-13T10:25:38;12.63;;;9.15;;
59310;SDS011;45078;51.654;21.250;2023-07-13T10:30:55;15.32;;;9.50;;
59310;SDS011;45078;51.654;21.250;2023-07-13T10:33:23;10.60;;;8.77;;
59310;SDS011;45078;51.654;21.250;2023-07-13T10:35:50;11.45;;;9.43;;
59310;SDS011;45078;51.654;21.250;2023-07-13T10:38:20;14.07;;;8.50;;
59310;SDS011;45078;51.654;21.250;2023-07-13T10:40:56;12.48;;;9.40;;
59310;SDS011;45078;51.654;21.250;2023-07-13T10:43:32;12.35;;;8.55;;
59310;SDS011;45078;51.654;21.250;2023-07-13T10:46:07;11.82;;;8.57;;
59310;SDS011;45078;51.654;21.250;2023-07-13T10:48:36;11.68;;;9.10;;
59310;SDS011;45078;51.654;21.250;2023-07-13T10:51:05;11.10;;;8.07;;
59310;SDS011;45078;51.654;21.250;2023-07-13T10:53:33;10.57;;;8.50;;
59310;SDS011;45078;51.654;21.250;2023-07-13T10:56:05;11.52;;;8.38;;
59310;SDS011;45078;51.654;21.250;2023-07-13T10:58:44;13.75;;;8.65;;
59310;SDS011;45078;51.654;21.250;2023-07-13T11:01:15;9.90;;;8.23;;
59310;SDS011;45078;51.654;21.250;2023-07-13T11:09:03;13.23;;;9.03;;
59310;SDS011;45078;51.654;21.250;2023-07-13T11:12:01;12.02;;;8.55;;
59310;SDS011;45078;51.654;21.250;2023-07-13T11:22:42;11.25;;;8.35;;
59310;SDS011;45078;51.654;21.250;2023-07-13T11:25:32;10.30;;;8.30;;
59310;SDS011;45078;51.654;21.250;2023-07-13T11:33:28;12.25;;;8.98;;
59310;SDS011;45078;51.654;21.250;2023-07-13T11:36:14;12.45;;;8.95;;
59310;SDS011;45078;51.654;21.250;2023-07-13T11:39:03;16.10;;;9.45;;
59310;SDS011;45078;51.654;21.250;2023-07-13T11:41:42;12.35;;;9.00;;
59310;SDS011;45078;51.654;21.250;2023-07-13T11:44:13;15.45;;;9.20;;
59310;SDS011;45078;51.654;21.250;2023-07-13T11:46:44;13.02;;;8.80;;
59310;SDS011;45078;51.654;21.250;2023-07-13T11:49:16;13.18;;;9.70;;
59310;SDS011;45078;51.654;21.250;2023-07-13T11:51:44;16.27;;;9.63;;
59310;SDS011;45078;51.654;21.250;2023-07-13T11:54:33;12.93;;;10.45;;
59310;SDS011;45078;51.654;21.250;2023-07-13T11:59:56;21.00;;;10.70;;
59310;SDS011;45078;51.654;21.250;2023-07-13T12:04:54;17.50;;;10.32;;
59310;SDS011;45078;51.654;21.250;2023-07-13T12:07:21;14.75;;;10.82;;
59310;SDS011;45078;51.654;21.250;2023-07-13T12:09:47;14.32;;;11.07;;
59310;SDS011;45078;51.654;21.250;2023-07-13T12:12:20;15.05;;;11.95;;
59310;SDS011;45078;51.654;21.250;2023-07-13T12:14:50;15.93;;;11.32;;
59310;SDS011;45078;51.654;21.250;2023-07-13T12:17:23;16.45;;;11.25;;
59310;SDS011;45078;51.654;21.250;2023-07-13T12:19:51;17.63;;;9.88;;
59310;SDS011;45078;51.654;21.250;2023-07-13T12:22:18;14.90;;;8.30;;
59310;SDS011;45078;51.654;21.250;2023-07-13T12:24:45;9.98;;;6.70;;
59310;SDS011;45078;51.654;21.250;2023-07-13T12:30:00;8.05;;;5.57;;
59310;SDS011;45078;51.654;21.250;2023-07-13T12:32:27;10.45;;;6.18;;
59310;SDS011;45078;51.654;21.250;2023-07-13T12:34:57;15.13;;;6.60;;
59310;SDS011;45078;51.654;21.250;2023-07-13T12:37:37;10.20;;;6.70;;
59310;SDS011;45078;51.654;21.250;2023-07-13T12:40:18;10.75;;;6.47;;
59310;SDS011;45078;51.654;21.250;2023-07-13T12:42:47;10.52;;;6.85;;
59310;SDS011;45078;51.654;21.250;2023-07-13T12:45:23;9.15;;;6.40;;
59310;SDS011;45078;51.654;21.250;2023-07-13T12:47:58;9.77;;;5.85;;
59310;SDS011;45078;51.654;21.250;2023-07-13T12:50:40;7.60;;;5.93;;
59310;SDS011;45078;51.654;21.250;2023-07-13T12:53:14;9.55;;;6.00;;
59310;SDS011;45078;51.654;21.250;2023-07-13T12:56:04;7.80;;;5.53;;
59310;SDS011;45078;51.654;21.250;2023-07-13T12:58:30;13.75;;;5.18;;
59310;SDS011;45078;51.654;21.250;2023-07-13T13:01:01;7.97;;;5.53;;
59310;SDS011;45078;51.654;21.250;2023-07-13T13:03:32;8.52;;;5.25;;
59310;SDS011;45078;51.654;21.250;2023-07-13T13:06:04;7.82;;;5.25;;
59310;SDS011;45078;51.654;21.250;2023-07-13T13:08:48;7.63;;;5.22;;
59310;SDS011;45078;51.654;21.250;2023-07-13T13:11:16;7.20;;;5.38;;
59310;SDS011;45078;51.654;21.250;2023-07-13T13:13:42;10.00;;;5.32;;
59310;SDS011;45078;51.654;21.250;2023-07-13T13:18:52;7.28;;;4.93;;
59310;SDS011;45078;51.654;21.250;2023-07-13T13:21:19;7.50;;;5.63;;
59310;SDS011;45078;51.654;21.250;2023-07-13T13:23:46;9.88;;;5.07;;
59310;SDS011;45078;51.654;21.250;2023-07-13T13:26:13;9.98;;;5.13;;
59310;SDS011;45078;51.654;21.250;2023-07-13T13:28:41;8.57;;;5.50;;
59310;SDS011;45078;51.654;21.250;2023-07-13T13:31:09;7.68;;;6.20;;
59310;SDS011;45078;51.654;21.250;2023-07-13T13:33:37;7.00;;;5.25;;
59310;SDS011;45078;51.654;21.250;2023-07-13T13:36:17;8.35;;;5.30;;
59310;SDS011;45078;51.654;21.250;2023-07-13T13:38:45;11.32;;;5.22;;
59310;SDS011;45078;51.654;21.250;2023-07-13T13:41:12;9.13;;;5.35;;
59310;SDS011;45078;51.654;21.250;2023-07-13T13:43:39;7.38;;;5.18;;
59310;SDS011;45078;51.654;21.250;2023-07-13T13:46:16;8.88;;;5.25;;
59310;SDS011;45078;51.654;21.250;2023-07-13T13:48:44;6.07;;;4.60;;
59310;SDS011;45078;51.654;21.250;2023-07-13T13:51:14;7.22;;;5.05;;
59310;SDS011;45078;51.654;21.250;2023-07-13T13:53:45;8.23;;;5.07;;
59310;SDS011;45078;51.654;21.250;2023-07-13T13:56:12;8.13;;;4.60;;
59310;SDS011;45078;51.654;21.250;2023-07-13T13:58:39;7.75;;;4.97;;
59310;SDS011;45078;51.654;21.250;2023-07-13T14:01:08;6.28;;;4.50;;
59310;SDS011;45078;51.654;21.250;2023-07-13T14:03:43;8.38;;;4.80;;
59310;SDS011;45078;51.654;21.250;2023-07-13T14:06:12;6.30;;;4.78;;
59310;SDS011;45078;51.654;21.250;2023-07-13T14:08:39;8.45;;;5.07;;
59310;SDS011;45078;51.654;21.250;2023-07-13T14:11:07;10.35;;;5.10;;
59310;SDS011;45078;51.654;21.250;2023-07-13T14:13:41;12.93;;;5.40;;
59310;SDS011;45078;51.654;21.250;2023-07-13T14:16:12;7.88;;;4.50;;
59310;SDS011;45078;51.654;21.250;2023-07-13T14:18:42;7.95;;;5.55;;
59310;SDS011;45078;51.654;21.250;2023-07-13T14:21:17;8.13;;;4.45;;
59310;SDS011;45078;51.654;21.250;2023-07-13T14:23:45;8.75;;;5.10;;
59310;SDS011;45078;51.654;21.250;2023-07-13T14:26:12;8.55;;;5.45;;
59310;SDS011;45078;51.654;21.250;2023-07-13T14:28:41;8.35;;;5.75;;
59310;SDS011;45078;51.654;21.250;2023-07-13T14:31:09;8.07;;;5.30;;
59310;SDS011;45078;51.654;21.250;2023-07-13T14:33:35;13.52;;;5.40;;
59310;SDS011;45078;51.654;21.250;2023-07-13T14:36:02;9.00;;;5.45;;
59310;SDS011;45078;51.654;21.250;2023-07-13T14:38:34;9.13;;;5.22;;
59310;SDS011;45078;51.654;21.250;2023-07-13T14:41:00;8.38;;;4.53;;
59310;SDS011;45078;51.654;21.250;2023-07-13T14:43:26;8.07;;;5.25;;
59310;SDS011;45078;51.654;21.250;2023-07-13T14:45:54;8.15;;;5.95;;
59310;SDS011;45078;51.654;21.250;2023-07-13T14:48:22;7.63;;;5.18;;
59310;SDS011;45078;51.654;21.250;2023-07-13T14:50:56;8.75;;;5.82;;
59310;SDS011;45078;51.654;21.250;2023-07-13T14:53:27;7.35;;;5.07;;
59310;SDS011;45078;51.654;21.250;2023-07-13T14:55:53;10.52;;;6.05;;
59310;SDS011;45078;51.654;21.250;2023-07-13T14:58:19;8.90;;;6.13;;
59310;SDS011;45078;51.654;21.250;2023-07-13T15:00:45;8.35;;;5.95;;
59310;SDS011;45078;51.654;21.250;2023-07-13T15:03:18;11.30;;;6.28;;
59310;SDS011;45078;51.654;21.250;2023-07-13T15:05:47;10.23;;;6.68;;
59310;SDS011;45078;51.654;21.250;2023-07-13T15:08:13;10.38;;;6.28;;
59310;SDS011;45078;51.654;21.250;2023-07-13T15:10:40;6.88;;;5.55;;
59310;SDS011;45078;51.654;21.250;2023-07-13T15:13:14;9.32;;;5.65;;
59310;SDS011;45078;51.654;21.250;2023-07-13T15:15:48;9.60;;;6.22;;
59310;SDS011;45078;51.654;21.250;2023-07-13T15:18:20;8.20;;;6.20;;
59310;SDS011;45078;51.654;21.250;2023-07-13T15:20:47;14.30;;;5.95;;
59310;SDS011;45078;51.654;21.250;2023-07-13T15:23:14;6.53;;;4.85;;
59310;SDS011;45078;51.654;21.250;2023-07-13T15:25:42;6.88;;;4.88;;
59310;SDS011;45078;51.654;21.250;2023-07-13T15:28:09;7.40;;;5.28;;
59310;SDS011;45078;51.654;21.250;2023-07-13T15:30:41;7.47;;;5.00;;
59310;SDS011;45078;51.654;21.250;2023-07-13T15:33:13;7.28;;;5.35;;